createdAt,value
2019-04-05T00:01:39.062Z,5.42
2019-04-05T00:04:12.915Z,5.42
2019-04-05T00:06:46.631Z,5.46
2019-04-05T00:09:20.742Z,5.44
2019-04-05T00:11:54.556Z,5.46
2019-04-05T00:14:28.331Z,5.53
2019-04-05T00:17:02.092Z,5.53
2019-04-05T00:19:35.787Z,5.58
2019-04-05T00:22:10.252Z,5.59
2019-04-05T00:24:44.019Z,5.59
2019-04-05T00:27:17.766Z,5.60
2019-04-05T00:29:51.453Z,5.60
2019-04-05T00:32:25.381Z,5.64
2019-04-05T00:34:59.076Z,5.65
2019-04-05T00:37:33.097Z,5.65
2019-04-05T00:40:08.131Z,5.62
2019-04-05T00:42:42.218Z,5.63
2019-04-05T00:45:27.438Z,5.65
2019-04-05T00:47:51.545Z,5.65
2019-04-05T00:50:25.648Z,5.66
2019-04-05T00:52:59.526Z,5.66
2019-04-05T00:55:33.393Z,5.79
2019-04-05T00:58:07.187Z,5.79
2019-04-05T01:00:41.213Z,5.76
2019-04-05T01:03:14.932Z,5.76
2019-04-05T01:05:48.782Z,5.81
2019-04-05T01:08:22.764Z,5.82
2019-04-05T01:10:56.609Z,5.79
2019-04-05T01:13:30.969Z,5.75
2019-04-05T01:16:04.669Z,5.75
2019-04-05T01:18:38.655Z,5.77
2019-04-05T01:21:14.729Z,5.77
2019-04-05T01:23:50.135Z,5.80
2019-04-05T01:26:24.681Z,5.73
2019-04-05T01:28:58.504Z,5.71
2019-04-05T01:31:32.345Z,5.71
2019-04-05T01:34:06.350Z,5.68
2019-04-05T01:36:40.128Z,5.68
2019-04-05T01:39:14.137Z,5.66
2019-04-05T01:41:48.988Z,5.65
2019-04-05T01:44:23.067Z,5.66
2019-04-05T01:46:56.833Z,5.66
2019-04-05T01:49:30.543Z,5.69
2019-04-05T01:52:04.391Z,5.67
2019-04-05T01:54:38.130Z,5.71
2019-04-05T01:57:12.212Z,5.72
2019-04-05T01:59:46.215Z,5.72
2019-04-05T02:02:19.974Z,5.61
2019-04-05T02:04:53.958Z,5.59
2019-04-05T02:07:28.407Z,5.63
2019-04-05T02:10:02.325Z,5.72
2019-04-05T02:12:36.468Z,5.54
2019-04-05T04:50:54.266Z,5.30
2019-04-05T04:53:28.658Z,5.20
2019-04-05T04:56:02.483Z,5.15
2019-04-05T04:58:36.344Z,5.17
2019-04-05T05:01:10.498Z,5.14
2019-04-05T05:03:44.471Z,5.14
2019-04-05T05:06:18.369Z,5.17
2019-04-05T05:08:52.326Z,5.12
2019-04-05T05:11:26.629Z,5.10
2019-04-05T05:14:00.773Z,5.10
2019-04-05T05:16:34.703Z,5.05
2019-04-05T05:19:08.750Z,5.05
2019-04-05T05:21:43.122Z,5.06
2019-04-05T05:24:16.976Z,5.01
2019-04-05T05:26:51.159Z,4.98
2019-04-05T05:29:25.573Z,4.98
2019-04-05T05:31:59.740Z,4.96
2019-04-05T05:34:33.693Z,4.93
2019-04-05T05:37:07.568Z,4.91
2019-04-05T05:39:41.356Z,4.88
2019-04-05T05:42:15.093Z,4.90
2019-04-05T05:44:48.782Z,4.89
2019-04-05T05:47:23.009Z,4.89
2019-04-05T05:49:56.695Z,4.98
2019-04-05T05:52:31.319Z,5.15
2019-04-05T05:55:05.571Z,5.15
2019-04-05T05:57:39.311Z,5.30
2019-04-05T06:00:14.440Z,5.32
2019-04-05T06:02:48.662Z,5.32
2019-04-05T06:05:22.378Z,5.40
2019-04-05T06:07:56.137Z,5.47
2019-04-05T06:10:30.108Z,5.50
2019-04-05T06:13:06.633Z,5.50
2019-04-05T06:15:39.739Z,5.51
2019-04-05T06:18:13.543Z,5.51
2019-04-05T06:20:47.232Z,5.44
2019-04-05T06:23:32.971Z,5.39
2019-04-05T06:25:56.591Z,5.40
2019-04-05T06:28:30.414Z,5.34
2019-04-05T06:31:04.129Z,5.34
2019-04-05T06:33:37.923Z,5.26
2019-04-05T06:36:11.618Z,5.23
2019-04-05T06:38:45.368Z,5.23
2019-04-05T06:41:19.371Z,5.17
2019-04-05T06:43:53.107Z,5.12
2019-04-05T06:46:26.803Z,5.08
2019-04-05T06:49:00.536Z,5.08
2019-04-05T06:51:34.241Z,5.08
2019-04-05T06:54:08.066Z,5.11
2019-04-05T06:56:41.834Z,5.17
2019-04-05T06:59:15.563Z,5.38
2019-04-05T07:01:49.572Z,5.38
2019-04-05T07:04:23.324Z,5.62
2019-04-05T07:06:57.103Z,5.73
2019-04-05T07:09:33.948Z,5.73
2019-04-05T07:12:06.653Z,5.83
2019-04-05T07:14:40.393Z,5.95
2019-04-05T07:17:14.106Z,6.10
2019-04-05T07:19:47.829Z,6.10
2019-04-05T07:22:33.508Z,6.24
2019-04-05T07:24:57.254Z,6.47
2019-04-05T07:27:30.947Z,6.47
2019-04-05T07:30:04.988Z,6.69
2019-04-05T07:32:39.862Z,6.81
2019-04-05T07:35:13.865Z,7.02
2019-04-05T07:37:47.568Z,7.14
2019-04-05T07:40:23.007Z,7.16
2019-04-05T07:42:56.700Z,7.27
2019-04-05T07:45:30.451Z,7.36
2019-04-05T07:48:04.150Z,7.47
2019-04-05T07:50:37.886Z,7.65
2019-04-05T07:53:11.588Z,7.85
2019-04-05T07:55:45.330Z,8.03
2019-04-05T07:58:19.029Z,8.17
2019-04-05T08:00:55.140Z,8.35
2019-04-05T08:03:28.800Z,8.64
2019-04-05T08:06:03.058Z,8.87
2019-04-05T08:09:09.330Z,9.24
2019-04-05T08:11:45.422Z,9.51
2019-04-05T08:14:20.520Z,9.62
2019-04-05T08:16:54.430Z,9.78
2019-04-05T08:19:28.125Z,9.81
2019-04-05T08:22:01.859Z,9.92
2019-04-05T08:24:35.556Z,9.97
2019-04-05T08:27:09.287Z,10.47
2019-04-05T08:29:42.992Z,10.74
2019-04-05T08:32:16.728Z,11.18
2019-04-05T08:34:50.758Z,11.46
2019-04-05T08:37:24.501Z,11.94
2019-04-05T08:39:58.212Z,12.33
2019-04-05T08:42:31.979Z,12.68
2019-04-05T08:45:06.345Z,12.89
2019-04-05T08:47:40.091Z,12.88
2019-04-05T08:50:15.804Z,12.78
2019-04-05T08:52:49.879Z,12.45
2019-04-05T08:55:23.586Z,12.35
2019-04-05T08:57:57.332Z,11.93
2019-04-05T09:00:31.361Z,12.03
2019-04-05T09:03:05.195Z,11.70
2019-04-05T09:05:38.893Z,12.01
2019-04-05T09:08:12.723Z,12.59
2019-04-05T09:10:46.500Z,12.86
2019-04-05T09:13:20.245Z,12.74
2019-04-05T09:15:53.947Z,13.06
2019-04-05T09:18:27.764Z,13.09
2019-04-05T09:21:01.540Z,13.18
2019-04-05T09:23:35.727Z,13.02
2019-04-05T09:26:09.503Z,13.56
2019-04-05T09:28:43.240Z,13.71
2019-04-05T09:31:16.948Z,14.31
2019-04-05T09:33:50.986Z,14.76
2019-04-05T09:36:25.371Z,15.09
2019-04-05T09:38:59.106Z,14.60
2019-04-05T09:41:32.818Z,15.04
2019-04-05T09:44:06.897Z,14.66
2019-04-05T09:46:47.031Z,14.47
2019-04-05T09:49:16.073Z,14.66
2019-04-05T09:51:49.779Z,14.17
2019-04-05T09:54:23.779Z,14.08
2019-04-05T09:56:57.488Z,13.73
2019-04-05T09:59:31.223Z,13.38
2019-04-05T10:02:05.025Z,13.67
2019-04-05T10:04:38.758Z,13.91
2019-04-05T10:07:12.533Z,13.64
2019-04-05T10:09:46.260Z,13.90
2019-04-05T10:12:19.968Z,13.46
2019-04-05T10:14:53.716Z,13.81
2019-04-05T10:17:27.420Z,13.98
2019-04-05T10:20:01.177Z,14.23
2019-04-05T10:22:34.883Z,14.13
2019-04-05T10:25:08.865Z,14.31
2019-04-05T10:27:42.573Z,14.58
2019-04-05T10:30:17.255Z,14.79
2019-04-05T10:32:50.972Z,14.47
2019-04-05T10:35:24.876Z,14.38
2019-04-05T10:37:58.649Z,13.97
2019-04-05T10:40:32.683Z,13.66
2019-04-05T10:43:06.531Z,13.71
2019-04-05T10:45:40.523Z,13.54
2019-04-05T10:48:14.239Z,13.56
2019-04-05T10:50:48.405Z,13.58
2019-04-05T10:53:22.109Z,13.31
2019-04-05T10:55:55.851Z,13.29
2019-04-05T10:58:29.557Z,13.63
2019-04-05T11:01:03.352Z,13.52
2019-04-05T11:03:37.044Z,13.24
2019-04-05T11:06:10.823Z,13.18
2019-04-05T11:08:44.765Z,13.57
2019-04-05T11:11:18.566Z,13.95
2019-04-05T11:13:52.563Z,13.67
2019-04-05T11:16:26.282Z,13.62
2019-04-05T11:19:01.904Z,13.41
2019-04-05T11:21:35.497Z,13.70
2019-04-05T11:24:09.593Z,13.61
2019-04-05T11:26:43.314Z,13.35
2019-04-05T11:29:17.080Z,13.43
2019-04-05T11:31:57.345Z,13.13
2019-04-05T11:34:26.606Z,13.19
2019-04-05T11:37:02.836Z,13.05
2019-04-05T11:39:37.320Z,13.06
2019-04-05T11:42:11.317Z,12.87
2019-04-05T11:44:48.358Z,12.65
2019-04-05T11:47:22.266Z,12.63
2019-04-05T11:49:57.710Z,12.56
2019-04-05T11:52:31.576Z,12.69
2019-04-05T11:55:05.977Z,13.05
2019-04-05T11:57:41.422Z,13.58
2019-04-05T12:00:20.357Z,14.43
2019-04-05T12:02:58.068Z,15.30
2019-04-05T12:05:31.769Z,15.71
2019-04-05T12:08:06.537Z,15.32
2019-04-05T12:10:40.319Z,15.66
2019-04-05T12:13:14.041Z,15.39
2019-04-05T12:15:47.810Z,15.36
2019-04-05T12:18:21.718Z,15.11
2019-04-05T12:21:00.010Z,14.83
2019-04-05T12:23:33.388Z,15.08
2019-04-05T12:26:06.967Z,15.87
2019-04-05T12:28:40.952Z,16.42
2019-04-05T12:31:15.393Z,16.96
2019-04-05T12:33:51.352Z,17.47
2019-04-05T12:36:24.543Z,17.87
2019-04-05T12:38:58.288Z,17.72
2019-04-05T12:41:31.993Z,17.42
2019-04-05T12:44:05.873Z,17.10
2019-04-05T12:46:39.646Z,17.47
2019-04-05T12:49:15.313Z,17.78
2019-04-05T12:51:49.189Z,18.04
2019-04-05T12:54:22.928Z,17.42
2019-04-05T12:56:58.131Z,17.16
2019-04-05T12:59:32.075Z,17.47
2019-04-05T13:02:05.837Z,16.88
2019-04-05T13:04:39.585Z,16.96
2019-04-05T13:07:13.269Z,16.71
2019-04-05T13:09:47.126Z,16.23
2019-04-05T13:12:20.822Z,16.36
2019-04-05T13:14:56.741Z,17.04
2019-04-05T13:17:31.326Z,16.43
2019-04-05T13:20:06.472Z,15.80
2019-04-05T13:22:40.177Z,15.22
2019-04-05T13:25:13.968Z,14.32
2019-04-05T13:27:47.661Z,13.94
2019-04-05T13:30:21.560Z,13.69
2019-04-05T13:32:55.339Z,13.25
2019-04-05T13:35:29.055Z,12.87
2019-04-05T13:38:02.750Z,12.88
2019-04-05T13:40:36.658Z,12.97
2019-04-05T13:43:10.748Z,12.90
2019-04-05T13:45:44.477Z,12.83
2019-04-05T13:48:18.175Z,12.90
2019-04-05T13:50:51.893Z,12.82
2019-04-05T13:53:25.870Z,12.62
2019-04-05T13:55:59.708Z,12.57
2019-04-05T13:58:33.397Z,12.38
2019-04-05T14:01:07.329Z,12.59
2019-04-05T14:03:41.016Z,12.83
2019-04-05T14:06:14.856Z,12.51
2019-04-05T14:08:48.550Z,12.16
2019-04-05T14:11:22.270Z,11.77
2019-04-05T14:13:55.962Z,11.64
2019-04-05T14:16:29.946Z,11.84
2019-04-05T14:19:03.714Z,12.04
2019-04-05T14:21:40.824Z,12.14
2019-04-05T14:24:13.141Z,12.38
2019-04-05T14:26:46.889Z,12.59
2019-04-05T14:29:20.699Z,12.45
2019-04-05T14:31:54.602Z,12.43
2019-04-05T14:34:28.601Z,12.50
2019-04-05T14:37:02.338Z,12.68
2019-04-05T14:39:36.034Z,12.78
2019-04-05T14:42:12.356Z,12.78
2019-04-05T14:44:45.333Z,12.76
2019-04-05T14:47:20.051Z,12.83
2019-04-05T14:49:53.749Z,12.78
2019-04-05T14:52:28.854Z,12.93
2019-04-05T14:55:03.073Z,12.99
2019-04-05T14:57:37.885Z,12.93
2019-04-05T15:00:15.021Z,12.92
2019-04-05T15:02:48.009Z,12.69
2019-04-05T15:05:21.700Z,12.67
2019-04-05T15:07:55.765Z,12.72
2019-04-05T15:10:29.726Z,12.77
2019-04-05T15:13:03.436Z,12.84
2019-04-05T15:15:37.122Z,12.96
2019-04-05T15:18:12.497Z,13.13
2019-04-05T15:20:46.263Z,13.16
2019-04-05T15:23:20.045Z,13.37
2019-04-05T15:25:53.733Z,13.33
2019-04-05T15:28:27.540Z,13.23
2019-04-05T15:31:01.228Z,13.14
2019-04-05T15:33:34.969Z,13.17
2019-04-05T15:36:08.658Z,13.23
2019-04-05T15:38:42.479Z,13.18
2019-04-05T15:41:16.326Z,13.04
2019-04-05T15:43:50.429Z,12.90
2019-04-05T15:46:25.237Z,12.62
2019-04-05T15:48:58.944Z,12.49
2019-04-05T15:51:32.908Z,12.35
2019-04-05T15:54:06.760Z,12.09
2019-04-05T15:56:41.149Z,11.98
2019-04-05T15:59:14.980Z,11.89
2019-04-05T16:01:48.746Z,11.78
2019-04-05T16:04:22.964Z,11.78
2019-04-05T16:06:57.056Z,11.77
2019-04-05T16:09:31.225Z,11.79
2019-04-05T16:12:05.252Z,11.79
2019-04-05T16:14:39.013Z,11.70
2019-04-05T16:17:13.038Z,11.46
2019-04-05T16:19:47.150Z,11.32
2019-04-05T16:22:30.788Z,11.14
2019-04-05T16:24:56.299Z,11.05
2019-04-05T16:27:30.410Z,10.94
2019-04-05T16:30:04.983Z,10.77
2019-04-05T16:32:39.069Z,10.58
2019-04-05T16:35:14.834Z,10.58
2019-04-05T16:37:48.619Z,10.48
2019-04-05T16:40:22.728Z,10.54
2019-04-05T16:43:02.845Z,10.35
2019-04-05T16:45:32.046Z,10.37
2019-04-05T16:48:05.885Z,10.35
2019-04-05T16:50:42.177Z,10.27
2019-04-05T16:53:15.060Z,10.20
2019-04-05T16:55:49.080Z,10.09
2019-04-05T17:00:56.189Z,10.08
2019-04-05T17:03:29.898Z,10.00
2019-04-05T17:06:03.951Z,9.98
2019-04-05T17:08:37.643Z,9.92
2019-04-05T17:11:11.388Z,10.05
2019-04-05T17:13:45.520Z,10.03
2019-04-05T17:16:19.258Z,9.87
2019-04-05T17:18:52.955Z,9.75
2019-04-05T17:21:26.749Z,9.87
2019-04-05T17:24:00.462Z,9.84
2019-04-05T17:26:34.802Z,9.84
2019-04-05T17:29:08.501Z,9.80
2019-04-05T17:31:42.237Z,9.79
2019-04-05T17:34:16.000Z,9.84
2019-04-05T17:36:49.783Z,9.96
2019-04-05T17:39:23.478Z,10.05
2019-04-05T17:41:57.225Z,10.07
2019-04-05T17:44:30.924Z,10.07
2019-04-05T17:47:04.808Z,10.08
2019-04-05T17:49:38.535Z,10.10
2019-04-05T17:52:12.631Z,10.11
2019-04-05T17:54:46.332Z,10.12
2019-04-05T17:57:20.707Z,10.15
2019-04-05T17:59:54.550Z,10.11
2019-04-05T18:02:28.755Z,10.08
2019-04-05T18:05:02.467Z,10.04
2019-04-05T18:07:36.261Z,9.96
2019-04-05T18:10:10.100Z,9.90
2019-04-05T18:12:43.835Z,9.88
2019-04-05T18:15:17.825Z,9.91
2019-04-05T18:17:51.547Z,9.81
2019-04-05T18:20:25.309Z,9.81
2019-04-05T18:22:59.042Z,9.60
2019-04-05T18:25:32.797Z,9.54
2019-04-05T18:28:06.543Z,9.43
2019-04-05T18:30:40.230Z,9.41
2019-04-05T18:33:13.953Z,9.38
2019-04-05T18:35:47.655Z,9.27
2019-04-05T18:38:21.382Z,9.28
2019-04-05T18:40:55.077Z,9.18
2019-04-05T18:43:29.065Z,9.17
2019-04-05T18:46:02.761Z,9.13
2019-04-05T18:48:36.743Z,9.15
2019-04-05T18:51:10.451Z,9.12
2019-04-05T18:53:44.212Z,9.15
2019-04-05T18:56:17.916Z,9.04
2019-04-05T18:58:51.655Z,9.04
2019-04-05T19:01:25.632Z,9.07
2019-04-05T19:03:59.679Z,9.09
2019-04-05T19:06:33.460Z,9.15
2019-04-05T19:09:08.287Z,9.06
2019-04-05T19:11:41.970Z,9.05
2019-04-05T19:14:15.699Z,9.05
2019-04-05T19:16:49.696Z,9.03
2019-04-05T19:19:23.494Z,8.86
2019-04-05T19:21:57.210Z,8.86
2019-04-05T19:24:31.214Z,8.90
2019-04-05T19:27:05.085Z,8.91
2019-04-05T19:29:38.827Z,8.93
2019-04-05T19:50:22.408Z,8.80
2019-04-05T19:52:56.527Z,8.77
2019-04-05T19:55:30.352Z,8.88
2019-04-05T19:58:04.152Z,8.91
2019-04-05T20:00:37.911Z,8.87
2019-04-05T20:03:11.628Z,8.83
2019-04-05T20:05:45.448Z,8.82
2019-04-05T20:08:19.431Z,8.82
2019-04-05T20:10:53.544Z,8.82
2019-04-05T20:13:27.222Z,8.79
2019-04-05T20:16:01.395Z,8.75
2019-04-05T20:18:35.156Z,8.76
2019-04-05T20:21:09.088Z,8.67
2019-04-05T20:23:47.488Z,8.72
2019-04-05T20:26:18.289Z,8.70
2019-04-05T20:28:52.007Z,8.74
2019-04-05T20:31:26.110Z,8.73
2019-04-05T20:33:59.768Z,8.73
2019-04-05T20:36:33.857Z,8.72
2019-04-05T20:39:08.195Z,8.73
2019-04-05T20:41:41.967Z,8.71
2019-04-05T20:44:15.678Z,8.62
2019-04-05T20:46:49.420Z,8.61
2019-04-05T20:49:23.126Z,8.63
2019-04-05T20:51:57.498Z,8.61
2019-04-05T20:54:31.553Z,8.68
2019-04-05T20:57:05.454Z,8.70
2019-04-05T20:59:39.155Z,8.70
2019-04-05T21:02:12.899Z,8.69
2019-04-05T21:04:46.616Z,8.74
2019-04-05T21:07:20.352Z,8.76
2019-04-05T21:09:54.154Z,8.74
2019-04-05T21:12:27.889Z,8.73
2019-04-05T21:15:01.606Z,8.80
2019-04-05T21:17:35.388Z,8.82
2019-04-05T21:20:09.444Z,8.81
2019-04-05T21:22:43.204Z,8.82
2019-04-05T21:25:16.917Z,8.76
2019-04-05T21:27:50.754Z,8.72
2019-04-05T21:30:24.473Z,8.60
2019-04-05T21:32:58.525Z,8.58
2019-04-05T21:35:32.535Z,8.57
2019-04-05T21:38:06.426Z,8.57
2019-04-05T21:40:40.189Z,8.60
2019-04-05T21:43:14.314Z,8.57
2019-04-05T21:45:48.077Z,8.57
2019-04-05T21:48:21.877Z,8.54
2019-04-05T21:50:55.736Z,8.52
2019-04-05T21:53:30.139Z,8.58
2019-04-05T21:56:03.911Z,8.60
2019-04-05T21:58:37.720Z,8.65
2019-04-05T22:01:11.969Z,8.64
2019-04-05T22:03:45.874Z,8.66
2019-04-05T22:06:19.635Z,8.70
2019-04-05T22:08:53.772Z,8.73
2019-04-05T22:11:28.000Z,8.69
2019-04-05T22:14:01.868Z,8.68
2019-04-05T22:16:35.927Z,8.69
2019-04-05T22:19:09.670Z,8.63
2019-04-05T22:21:43.476Z,8.57
2019-04-05T22:24:17.272Z,8.56
2019-04-05T22:26:51.069Z,8.52
2019-04-05T22:29:24.914Z,8.61
2019-04-05T22:31:58.693Z,8.64
2019-04-05T22:34:32.815Z,8.62
2019-04-05T22:37:06.597Z,8.63
2019-04-05T22:39:40.457Z,8.60
2019-04-05T22:42:14.307Z,8.55
2019-04-05T22:44:48.155Z,8.55
2019-04-05T22:47:21.952Z,8.43
2019-04-05T22:49:55.833Z,8.35
2019-04-05T22:52:29.623Z,8.33
2019-04-05T22:55:11.008Z,8.25
2019-04-05T22:57:39.360Z,8.32
2019-04-05T23:00:14.710Z,8.36
2019-04-05T23:02:48.501Z,8.45
2019-04-05T23:05:22.327Z,8.47
2019-04-05T23:07:56.121Z,8.51
2019-04-05T23:10:29.955Z,8.44
2019-04-05T23:13:03.743Z,8.34
2019-04-05T23:15:37.817Z,8.33
2019-04-05T23:18:11.621Z,8.43
2019-04-05T23:20:45.492Z,8.46
2019-04-05T23:23:19.290Z,8.46
2019-04-05T23:25:53.455Z,8.42
2019-04-05T23:28:27.237Z,8.45
2019-04-05T23:31:01.077Z,8.50
2019-04-05T23:33:34.872Z,8.53
2019-04-05T23:36:08.683Z,8.56
2019-04-05T23:38:42.707Z,8.62
2019-04-05T23:41:16.553Z,8.58
2019-04-05T23:43:50.673Z,8.56
2019-04-05T23:46:24.909Z,8.55
2019-04-05T23:48:58.698Z,8.58
2019-04-05T23:51:32.527Z,8.53
2019-04-05T23:54:06.313Z,8.48
2019-04-05T23:56:40.427Z,8.43
2019-04-05T23:59:14.344Z,8.46
